Time;durP1;ratioP1;P1;durP2;ratioP2;P2;SDS_P1;SDS_P2;PMS_P1;PMS_P2;Temp;Humidity;BMP_temperature;BMP_pressure;BME280_temperature;BME280_humidity;BME280_pressure;Samples;Min_cycle;Max_cycle;Signal;HPM_P1;HPM_P2
2023/09/12 00:01:13;;;;;;;4.28;1.25;;;;;;;18.57;76.72;99403.44;5073349;28;20055;-67
2023/09/12 00:03:42;;;;;;;1.33;1.15;;;;;;;18.60;76.56;99395.56;5073318;28;20068;-67
2023/09/12 00:06:11;;;;;;;1.02;0.93;;;;;;;18.63;76.58;99392.03;5073489;28;20049;-67
2023/09/12 00:08:41;;;;;;;2.53;1.40;;;;;;;18.70;76.31;99391.75;5073240;28;20052;-67
2023/09/12 00:11:12;;;;;;;1.52;1.17;;;;;;;18.71;76.13;99390.00;5073524;28;20494;-67
2023/09/12 00:13:41;;;;;;;1.30;1.17;;;;;;;18.71;76.08;99393.41;5073088;28;20044;-68
2023/09/12 00:16:11;;;;;;;;;;;;;;;18.79;76.04;99394.88;5073498;28;20044;-67
2023/09/12 00:18:40;;;;;;;;;;;;;;;18.80;75.40;99393.97;5073819;28;20306;-67
2023/09/12 00:21:10;;;;;;;4.35;1.88;;;;;;;18.79;75.24;99392.31;5073482;28;20033;-67
2023/09/12 00:23:38;;;;;;;0.70;0.70;;;;;;;18.77;75.40;99383.72;5073130;28;20041;-67
2023/09/12 00:26:08;;;;;;;1.20;0.83;;;;;;;18.73;75.42;99383.88;5073319;28;20032;-67
2023/09/12 00:28:38;;;;;;;2.22;1.67;;;;;;;18.66;75.59;99387.59;5073404;28;20366;-68
2023/09/12 00:31:08;;;;;;;1.63;1.40;;;;;;;18.58;75.61;99384.44;5071875;28;20045;-67
2023/09/12 00:33:36;;;;;;;1.53;1.33;;;;;;;18.59;75.60;99380.97;5073001;28;20040;-67
2023/09/12 00:36:06;;;;;;;1.48;1.38;;;;;;;18.69;75.64;99386.66;5072826;28;20098;-67
2023/09/12 00:38:35;;;;;;;2.65;1.60;;;;;;;18.69;75.36;99379.69;5072940;28;20044;-67
2023/09/12 00:41:03;;;;;;;2.00;1.80;;;;;;;18.63;75.39;99377.38;5072039;28;20119;-67
2023/09/12 00:43:34;;;;;;;1.40;0.98;;;;;;;18.55;75.56;99384.56;5071739;28;20292;-67
2023/09/12 00:46:03;;;;;;;0.95;0.90;;;;;;;18.46;75.83;99374.56;5106578;28;20048;-67
2023/09/12 00:48:33;;;;;;;1.30;1.20;;;;;;;18.37;75.89;99374.88;5075368;28;20056;-67
2023/09/12 00:51:03;;;;;;;1.10;1.00;;;;;;;18.29;76.28;99388.97;5076571;28;20110;-67
2023/09/12 00:53:32;;;;;;;1.77;1.25;;;;;;;18.16;76.36;99386.03;5075239;28;20527;-67
2023/09/12 00:56:02;;;;;;;2.70;1.00;;;;;;;18.12;76.58;99384.41;5075232;28;20052;-67
2023/09/12 00:58:33;;;;;;;1.20;1.10;;;;;;;18.11;76.78;99382.75;5076365;28;20136;-67
2023/09/12 01:01:04;;;;;;;2.13;1.42;;;;;;;18.09;76.79;99384.56;5076448;28;20128;-67
2023/09/12 01:03:33;;;;;;;1.85;0.93;;;;;;;18.09;76.96;99384.56;5076707;28;20060;-67
2023/09/12 01:06:05;;;;;;;1.88;1.15;;;;;;;18.16;76.98;99378.25;5076267;28;20064;-67
2023/09/12 01:08:37;;;;;;;0.80;0.77;;;;;;;18.26;76.71;99376.19;5075324;28;20068;-67
2023/09/12 01:11:06;;;;;;;0.63;0.63;;;;;;;18.29;76.49;99382.06;5075022;28;20051;-67
2023/09/12 01:13:37;;;;;;;0.88;0.70;;;;;;;18.30;76.50;99373.44;5074886;28;20075;-67
2023/09/12 01:16:06;;;;;;;3.13;1.45;;;;;;;18.30;76.22;99373.44;5075288;28;20106;-67
2023/09/12 01:18:34;;;;;;;1.00;0.90;;;;;;;18.30;nan;99376.03;5076363;28;20078;-67
2023/09/12 01:21:23;;;;;;;0.82;0.70;;;;;;;18.30;76.33;99378.59;5076101;28;20121;-68
2023/09/12 01:24:07;;;;;;;1.58;1.30;;;;;;;18.26;76.32;99377.00;5076398;28;20049;-67
2023/09/12 01:26:50;;;;;;;1.17;1.08;;;;;;;18.20;76.39;99377.25;5076042;28;20539;-67
2023/09/12 01:29:23;;;;;;;7.47;1.55;;;;;;;18.19;76.47;99377.31;5075841;28;20044;-67
2023/09/12 01:31:55;;;;;;;1.50;0.77;;;;;;;18.26;76.42;99382.19;5075159;28;20094;-67
2023/09/12 01:34:24;;;;;;;1.25;0.98;;;;;;;18.27;76.23;99378.69;5074875;28;20094;-67
2023/09/12 01:36:53;;;;;;;1.40;1.17;;;;;;;18.33;76.17;99375.88;5074345;28;20518;-67
2023/09/12 01:39:21;;;;;;;1.90;1.20;;;;;;;18.25;76.28;99375.34;5075671;28;20496;-67
2023/09/12 01:41:54;;;;;;;0.95;0.90;;;;;;;18.13;76.26;99372.34;5076012;28;20036;-67
2023/09/12 01:44:26;;;;;;;0.85;0.85;;;;;;;18.01;76.65;99376.22;5075603;28;20048;-67
2023/09/12 01:46:56;;;;;;;0.82;0.70;;;;;;;17.94;76.73;99377.34;5075872;28;20064;-67
2023/09/12 01:49:28;;;;;;;1.10;0.95;;;;;;;17.89;76.89;99381.81;5075774;28;20404;-67
2023/09/12 01:51:59;;;;;;;2.70;1.58;;;;;;;17.88;77.11;99387.88;5075453;28;20127;-67
2023/09/12 01:54:28;;;;;;;1.30;1.10;;;;;;;17.85;77.37;99385.41;5075426;28;20465;-67
2023/09/12 01:56:59;;;;;;;;;;;;;;;17.82;77.42;99386.38;5074698;28;20450;-67
2023/09/12 01:59:30;;;;;;;1.23;1.05;;;;;;;17.86;77.42;99387.94;5073760;28;19942;-68
2023/09/12 02:01:58;;;;;;;2.53;1.55;;;;;;;17.89;77.33;99382.66;5074175;28;20090;-68
2023/09/12 02:04:27;;;;;;;1.70;1.57;;;;;;;17.91;77.32;99390.34;5075244;28;20041;-67
2023/09/12 02:06:58;;;;;;;0.77;0.77;;;;;;;17.95;77.01;99374.69;5075522;28;20067;-67
2023/09/12 02:09:27;;;;;;;2.45;1.35;;;;;;;18.02;76.75;99383.91;5075102;28;20409;-67
2023/09/12 02:11:56;;;;;;;2.47;1.63;;;;;;;18.02;76.62;99372.72;5075322;28;20063;-67
2023/09/12 02:14:25;;;;;;;1.57;1.03;;;;;;;18.04;76.63;99381.28;5074883;28;20033;-67
2023/09/12 02:16:56;;;;;;;2.30;1.02;;;;;;;18.05;76.67;99378.63;5074995;28;20277;-67
2023/09/12 02:19:25;;;;;;;12.82;1.58;;;;;;;18.09;76.49;99375.03;5074982;28;20150;-67
2023/09/12 02:21:54;;;;;;;2.27;1.43;;;;;;;18.13;76.35;99374.94;5073949;28;20036;-67
2023/09/12 02:24:23;;;;;;;1.20;1.10;;;;;;;18.12;76.33;99381.84;5073669;28;20037;-68
2023/09/12 02:26:52;;;;;;;0.90;0.90;;;;;;;18.11;76.27;99381.91;5107730;28;20056;-68
2023/09/12 02:29:22;;;;;;;1.27;1.17;;;;;;;18.06;76.38;99379.50;5075048;28;20111;-67
2023/09/12 02:31:50;;;;;;;1.60;1.23;;;;;;;17.94;76.58;99380.78;5073420;28;20060;-68
2023/09/12 02:34:21;;;;;;;1.07;0.97;;;;;;;17.95;76.64;99381.59;5107172;28;20043;-67
2023/09/12 02:36:50;;;;;;;1.27;1.20;;;;;;;17.99;76.51;99378.88;5073141;28;20376;-68
2023/09/12 02:39:18;;;;;;;1.90;1.00;;;;;;;17.90;76.68;99378.34;5074481;28;20093;-68
2023/09/12 02:41:47;;;;;;;4.85;2.38;;;;;;;17.89;76.84;99381.81;5074414;28;20105;-67
2023/09/12 02:44:16;;;;;;;2.33;1.23;;;;;;;17.90;76.57;99379.16;5074637;28;20408;-67
2023/09/12 02:46:45;;;;;;;1.40;1.05;;;;;;;17.88;76.61;99382.69;5073455;28;20712;-68
2023/09/12 02:49:15;;;;;;;2.65;1.50;;;;;;;17.75;76.74;99384.91;5074253;28;20044;-68
2023/09/12 02:51:46;;;;;;;0.40;0.40;;;;;;;17.68;76.90;99385.16;5074181;28;20131;-68
2023/09/12 02:54:15;;;;;;;0.90;0.90;;;;;;;17.44;77.10;99389.38;5072958;28;20123;-68
2023/09/12 02:56:45;;;;;;;1.15;1.05;;;;;;;17.33;77.68;99387.13;5073249;28;20048;-68
2023/09/12 02:59:13;;;;;;;1.48;1.30;;;;;;;17.28;78.09;99389.00;5107014;28;20040;-68
2023/09/12 03:01:42;;;;;;;1.67;1.37;;;;;;;17.29;78.40;99385.56;5073992;28;20047;-68
2023/09/12 03:04:12;;;;;;;1.50;1.07;;;;;;;17.27;78.44;99386.50;5073062;28;20777;-68
2023/09/12 03:06:41;;;;;;;2.47;1.48;;;;;;;17.21;78.66;99389.25;5074063;28;20424;-68
2023/09/12 03:09:16;;;;;;;3.05;1.30;;;;;;;17.11;78.86;99386.13;5074253;28;20151;-68
2023/09/12 03:11:45;;;;;;;1.77;1.15;;;;;;;17.11;79.09;99386.13;5072709;28;20076;-68
2023/09/12 03:14:14;;;;;;;0.87;0.63;;;;;;;17.09;79.33;99393.06;5072657;28;20036;-68
2023/09/12 03:16:43;;;;;;;4.28;1.00;;;;;;;17.04;79.33;99389.81;5072632;28;20114;-67
2023/09/12 03:19:12;;;;;;;0.93;0.85;;;;;;;17.09;79.35;99387.91;5073756;28;20102;-67
2023/09/12 03:21:41;;;;;;;1.07;1.03;;;;;;;17.17;79.36;99391.09;5072570;28;20114;-68
2023/09/12 03:24:10;;;;;;;1.85;1.45;;;;;;;17.25;79.35;99389.09;5073643;28;20277;-68
2023/09/12 03:26:41;;;;;;;1.35;1.25;;;;;;;17.33;79.05;99387.13;5073376;28;20064;-67
2023/09/12 03:29:10;;;;;;;1.35;0.95;;;;;;;17.40;78.81;99398.94;5072493;28;20048;-68
2023/09/12 03:31:39;;;;;;;1.70;0.88;;;;;;;17.46;78.65;99391.88;5074022;28;20062;-68
2023/09/12 03:34:08;;;;;;;0.70;0.70;;;;;;;17.50;78.55;99403.78;5073605;28;20033;-67
2023/09/12 03:36:37;;;;;;;;;;;;;;;17.52;78.33;99402.03;5073872;28;20082;-68
2023/09/12 03:39:08;;;;;;;1.52;0.90;;;;;;;17.43;78.27;99401.44;5072392;28;19969;-68
2023/09/12 03:41:37;;;;;;;1.42;1.00;;;;;;;17.48;78.27;99401.28;5073849;28;20048;-67
2023/09/12 03:44:08;;;;;;;2.73;1.60;;;;;;;17.39;78.43;99412.75;5073677;28;20432;-68
2023/09/12 03:46:38;;;;;;;2.80;1.02;;;;;;;17.39;78.60;99407.59;5072589;28;20709;-68
2023/09/12 03:49:07;;;;;;;1.48;1.38;;;;;;;17.38;78.47;99405.88;5072204;28;20099;-68
2023/09/12 03:51:37;;;;;;;3.92;1.15;;;;;;;17.40;78.53;99403.25;5072238;28;20155;-68
2023/09/12 03:54:07;;;;;;;0.60;0.60;;;;;;;17.34;78.59;99399.16;5073568;28;20044;-68
2023/09/12 03:56:36;;;;;;;3.53;1.30;;;;;;;17.27;78.49;99402.81;5072150;28;20041;-68
2023/09/12 03:59:07;;;;;;;1.50;0.93;;;;;;;17.22;78.73;99398.69;5073364;28;20477;-67
2023/09/12 04:01:36;;;;;;;1.55;1.25;;;;;;;17.12;78.69;99398.16;5073428;28;20802;-68
2023/09/12 04:04:05;;;;;;;1.17;0.95;;;;;;;16.98;78.88;99402.91;5072301;28;20381;-68
2023/09/12 04:06:34;;;;;;;2.20;1.65;;;;;;;16.89;79.54;99404.91;5073289;28;20102;-68
2023/09/12 04:09:04;;;;;;;2.38;1.80;;;;;;;16.93;79.63;99407.34;5072042;28;20411;-68
2023/09/12 04:11:33;;;;;;;;;;;;;;;16.92;79.40;99408.22;5072352;28;20079;-68
2023/09/12 04:14:17;;;;;;;2.05;1.25;;;;;;;16.86;79.58;99399.84;5072214;28;20334;-68
2023/09/12 04:16:45;;;;;;;0.88;0.85;;;;;;;16.81;79.69;99405.16;5073193;28;20103;-68
2023/09/12 04:19:15;;;;;;;1.75;1.30;;;;;;;16.77;79.94;99408.72;5073133;28;20123;-68
2023/09/12 04:21:44;;;;;;;0.70;0.70;;;;;;;16.74;80.12;99401.06;5074519;28;20133;-68
2023/09/12 04:24:13;;;;;;;1.38;1.17;;;;;;;16.73;80.18;99413.09;5076996;28;20094;-68
2023/09/12 04:26:43;;;;;;;1.65;1.55;;;;;;;16.79;80.45;99408.66;5075840;28;20079;-68
2023/09/12 04:29:12;;;;;;;1.23;1.08;;;;;;;16.70;80.47;99405.44;5109772;28;20072;-68
2023/09/12 04:31:43;;;;;;;1.00;0.75;;;;;;;16.64;80.56;99409.97;5076944;28;20044;-68
2023/09/12 04:34:12;;;;;;;1.20;1.10;;;;;;;16.66;80.44;99408.16;5075609;28;20052;-68
2023/09/12 04:36:41;;;;;;;1.13;1.03;;;;;;;16.71;80.54;99412.31;5075400;28;20508;-68
2023/09/12 04:39:10;;;;;;;2.30;1.65;;;;;;;16.72;80.65;99408.00;5076737;28;20281;-68
2023/09/12 04:41:39;;;;;;;1.43;1.20;;;;;;;16.75;80.65;99407.88;5075816;28;20044;-67
2023/09/12 04:44:08;;;;;;;1.17;0.98;;;;;;;16.77;80.54;99406.13;5075417;28;20284;-68
2023/09/12 04:46:37;;;;;;;1.48;1.17;;;;;;;16.87;80.89;99417.84;5075663;28;20060;-68
2023/09/12 04:49:09;;;;;;;2.17;1.90;;;;;;;16.88;80.48;99409.22;5076883;28;20055;-68
2023/09/12 04:51:38;;;;;;;1.90;1.20;;;;;;;16.90;80.73;99407.44;5075376;28;20370;-68
2023/09/12 04:54:07;;;;;;;3.08;2.35;;;;;;;16.90;81.26;99401.44;5076474;28;20041;-68
2023/09/12 04:56:36;;;;;;;1.77;1.48;;;;;;;16.94;81.35;99413.34;5075398;28;20377;-68
2023/09/12 04:59:06;;;;;;;2.37;1.90;;;;;;;16.97;81.69;99408.09;5075211;28;20528;-67
2023/09/12 05:01:36;;;;;;;1.55;1.45;;;;;;;17.09;81.59;99408.56;5075180;28;20054;-68
2023/09/12 05:04:05;;;;;;;3.47;1.30;;;;;;;17.22;81.28;99415.03;5075131;28;20068;-68
2023/09/12 05:06:35;;;;;;;1.70;1.35;;;;;;;17.28;80.75;99414.81;5075419;28;20400;-68
2023/09/12 05:09:05;;;;;;;2.20;1.58;;;;;;;17.35;80.65;99424.03;5075406;28;20076;-68
2023/09/12 05:11:35;;;;;;;0.80;0.80;;;;;;;17.43;80.48;99419.50;5076183;28;20040;-68
2023/09/12 05:14:04;;;;;;;1.13;1.02;;;;;;;17.46;80.17;99420.28;5076101;28;20040;-68
2023/09/12 05:16:33;;;;;;;1.27;1.20;;;;;;;17.51;79.76;99426.13;5074882;28;20514;-68
2023/09/12 05:19:02;;;;;;;5.18;1.38;;;;;;;17.63;79.50;99415.44;5074882;28;20527;-68
2023/09/12 05:21:32;;;;;;;1.30;1.20;;;;;;;17.76;79.39;99416.69;5076026;28;20098;-68
2023/09/12 05:24:02;;;;;;;0.80;0.80;;;;;;;17.86;79.07;99418.06;5074801;28;20052;-68
2023/09/12 05:26:31;;;;;;;1.60;1.48;;;;;;;17.89;78.91;99418.81;5075844;28;20098;-68
2023/09/12 05:29:00;;;;;;;0.75;0.70;;;;;;;17.95;78.98;99416.00;5074678;28;20036;-68
2023/09/12 05:31:32;;;;;;;2.33;1.58;;;;;;;18.05;79.21;99425.13;5074574;28;20040;-68
2023/09/12 05:34:02;;;;;;;5.53;2.15;;;;;;;18.16;78.94;99423.91;5073602;28;20110;-68
2023/09/12 05:36:31;;;;;;;1.23;1.02;;;;;;;18.23;78.81;99422.78;5075295;28;20052;-67
2023/09/12 05:39:03;;;;;;;1.50;1.38;;;;;;;18.33;78.59;99424.97;5075763;28;20048;-67
2023/09/12 05:41:32;;;;;;;3.05;1.88;;;;;;;18.44;78.37;99417.69;5075707;28;20048;-68
2023/09/12 05:44:01;;;;;;;2.20;1.60;;;;;;;18.45;77.91;99424.53;5075605;28;20040;-67
2023/09/12 05:46:30;;;;;;;1.55;1.00;;;;;;;18.50;77.56;99427.81;5075779;28;20131;-67
2023/09/12 05:48:59;;;;;;;1.40;1.20;;;;;;;18.58;77.42;99433.56;5074650;28;20033;-67
2023/09/12 05:51:28;;;;;;;12.48;1.85;;;;;;;18.68;77.19;99437.50;5074276;28;20041;-67
2023/09/12 05:53:57;;;;;;;1.17;1.08;;;;;;;18.74;76.76;99437.25;5074278;28;20560;-67
2023/09/12 05:56:28;;;;;;;1.50;1.30;;;;;;;18.84;76.61;99431.72;5074163;28;20072;-67
2023/09/12 05:58:57;;;;;;;3.38;1.73;;;;;;;18.99;76.31;99431.16;5073631;28;20443;-68
2023/09/12 06:01:26;;;;;;;3.00;2.00;;;;;;;19.12;76.01;99442.72;5068841;28;20112;-67
2023/09/12 06:03:56;;;;;;;1.27;0.95;;;;;;;19.25;75.69;99436.13;5072168;28;20474;-68
2023/09/12 06:06:25;;;;;;;2.05;1.75;;;;;;;19.34;75.02;99433.19;5073599;28;20052;-67
2023/09/12 06:08:54;;;;;;;2.50;1.73;;;;;;;19.40;74.23;99440.75;5075061;28;20045;-67
2023/09/12 06:11:23;;;;;;;1.45;1.25;;;;;;;19.52;73.94;99426.44;5074201;28;20040;-67
2023/09/12 06:13:53;;;;;;;1.00;0.90;;;;;;;19.66;73.46;99429.31;5075277;28;20048;-67
2023/09/12 06:16:22;;;;;;;2.38;1.52;;;;;;;19.73;73.19;99426.41;5074828;28;20037;-67
2023/09/12 06:18:53;;;;;;;1.40;1.17;;;;;;;19.76;72.84;99428.03;5073277;28;20060;-66
2023/09/12 06:21:22;;;;;;;3.50;1.20;;;;;;;19.77;72.57;99425.38;5073968;28;20094;-66
2023/09/12 06:24:10;;;;;;;0.82;0.77;;;;;;;19.88;72.25;99430.94;5074766;28;20132;-66
2023/09/12 06:26:39;;;;;;;2.75;1.98;;;;;;;20.02;71.69;99425.16;5074737;28;20115;-66
2023/09/12 06:29:10;;;;;;;1.35;1.25;;;;;;;20.17;71.63;99426.25;5073347;28;20040;-66
2023/09/12 06:31:39;;;;;;;1.50;1.40;;;;;;;20.30;71.26;99423.06;5075286;28;20037;-66
2023/09/12 06:34:08;;;;;;;2.13;1.05;;;;;;;20.43;70.79;99424.22;5074848;28;20127;-66
2023/09/12 06:36:37;;;;;;;1.65;1.10;;;;;;;20.55;70.15;99428.03;5074180;28;20044;-65
2023/09/12 06:39:06;;;;;;;0.80;0.77;;;;;;;20.67;69.91;99424.88;5073165;28;20450;-66
2023/09/12 06:41:35;;;;;;;0.65;0.60;;;;;;;20.76;69.39;99431.38;5073471;28;20045;-66
2023/09/12 06:44:05;;;;;;;1.23;1.02;;;;;;;20.87;69.10;99423.94;5074378;28;20545;-66
2023/09/12 06:46:37;;;;;;;2.13;1.88;;;;;;;20.97;68.66;99431.22;5074241;28;20055;-66
2023/09/12 06:49:06;;;;;;;0.68;0.68;;;;;;;21.01;68.41;99427.59;5073094;28;20546;-66
2023/09/12 06:51:35;;;;;;;1.48;1.38;;;;;;;21.09;68.42;99420.28;5073226;28;20040;-66
2023/09/12 06:54:06;;;;;;;1.13;0.93;;;;;;;21.23;68.06;99432.63;5074499;28;20056;-65
2023/09/12 06:56:37;;;;;;;1.70;1.38;;;;;;;21.34;67.83;99436.38;5073992;28;20044;-66
2023/09/12 06:59:06;;;;;;;2.28;1.23;;;;;;;21.43;67.51;99439.47;5073124;28;20454;-65
2023/09/12 07:01:37;;;;;;;1.83;1.35;;;;;;;21.55;67.07;99438.84;5074383;28;20090;-66
2023/09/12 07:04:06;;;;;;;1.00;0.90;;;;;;;21.63;66.74;99436.72;5073997;28;20614;-65
2023/09/12 07:06:36;;;;;;;1.90;1.63;;;;;;;21.71;66.35;99444.97;5073999;28;20049;-66
2023/09/12 07:09:08;;;;;;;2.35;1.85;;;;;;;21.77;66.33;99434.25;5072277;28;20563;-65
2023/09/12 07:11:37;;;;;;;1.38;1.15;;;;;;;21.86;66.09;99433.81;5073935;28;20056;-65
2023/09/12 07:14:06;;;;;;;13.70;1.57;;;;;;;21.98;65.90;99439.25;5073783;28;20098;-65
2023/09/12 07:16:36;;;;;;;0.85;0.85;;;;;;;22.13;65.54;99432.44;5073730;28;20048;-65
2023/09/12 07:19:05;;;;;;;1.95;1.42;;;;;;;22.28;65.30;99421.25;5072229;28;20528;-67
2023/09/12 07:21:34;;;;;;;1.53;1.30;;;;;;;22.40;64.76;99425.78;5069484;28;20045;-66
2023/09/12 07:24:03;;;;;;;2.97;1.52;;;;;;;22.50;64.34;99432.19;5073844;28;20093;-66
2023/09/12 07:26:31;;;;;;;0.90;0.77;;;;;;;22.59;64.26;99439.50;5073536;28;20051;-67
2023/09/12 07:29:02;;;;;;;1.20;1.10;;;;;;;22.70;64.06;99431.13;5073047;28;20049;-67
2023/09/12 07:31:31;;;;;;;1.15;0.88;;;;;;;22.82;63.83;99437.47;5072856;28;20098;-67
2023/09/12 07:34:02;;;;;;;1.92;1.58;;;;;;;22.95;63.50;99434.09;5073756;28;20442;-67
2023/09/12 07:36:34;;;;;;;1.13;1.00;;;;;;;23.07;63.18;99435.19;5073286;28;20118;-65
2023/09/12 07:39:03;;;;;;;0.73;0.73;;;;;;;23.18;62.96;99435.41;5072304;28;20041;-67
2023/09/12 07:41:32;;;;;;;;;;;;;;;23.32;62.36;99435.50;5072610;28;20039;-65
2023/09/12 07:44:04;;;;;;;1.73;1.30;;;;;;;23.40;61.60;99435.91;5073313;28;19927;-66
2023/09/12 07:46:33;;;;;;;1.20;0.90;;;;;;;23.43;61.33;99425.31;5073209;28;20040;-66
2023/09/12 07:49:03;;;;;;;1.67;1.10;;;;;;;23.50;61.12;99437.06;5073346;28;20066;-66
2023/09/12 07:51:32;;;;;;;1.83;1.55;;;;;;;23.65;61.33;99441.41;5073422;28;20052;-67
2023/09/12 07:54:01;;;;;;;0.57;0.57;;;;;;;23.73;60.58;99440.97;5073282;28;20044;-67
2023/09/12 07:56:30;;;;;;;1.50;1.08;;;;;;;23.77;60.31;99429.44;5072458;28;20090;-67
2023/09/12 07:58:59;;;;;;;0.97;0.80;;;;;;;23.94;60.03;99432.72;5073280;28;20044;-67
2023/09/12 08:01:28;;;;;;;1.48;1.38;;;;;;;24.02;59.98;99428.81;5072583;28;20792;-66
2023/09/12 08:03:57;;;;;;;0.77;0.77;;;;;;;24.15;59.94;99424.56;5073305;28;20135;-66
2023/09/12 08:06:27;;;;;;;2.22;1.90;;;;;;;24.31;59.30;99425.31;5072139;28;20392;-66
2023/09/12 08:08:56;;;;;;;1.65;1.00;;;;;;;24.39;59.14;99428.31;5073455;28;20067;-67
2023/09/12 08:11:26;;;;;;;1.45;1.05;;;;;;;24.49;59.02;99426.81;5072386;28;20051;-67
2023/09/12 08:13:55;;;;;;;0.75;0.73;;;;;;;24.55;58.20;99429.03;5073744;28;20045;-67
2023/09/12 08:16:26;;;;;;;1.73;1.33;;;;;;;24.62;58.39;99435.53;5073167;28;20052;-66
2023/09/12 08:18:55;;;;;;;2.30;2.03;;;;;;;24.75;58.36;99426.03;5071480;28;20386;-67
2023/09/12 08:21:24;;;;;;;1.13;1.02;;;;;;;24.80;58.12;99431.84;5073294;28;20040;-67
2023/09/12 08:23:54;;;;;;;0.98;0.88;;;;;;;24.85;58.17;99437.63;5072971;28;20041;-67
2023/09/12 08:26:23;;;;;;;0.85;0.85;;;;;;;24.98;58.14;99438.50;5074202;28;20433;-67
2023/09/12 08:28:52;;;;;;;0.63;0.63;;;;;;;25.10;57.86;99442.94;5071869;28;20040;-67
2023/09/12 08:31:21;;;;;;;1.80;0.98;;;;;;;25.22;58.20;99441.31;5073039;28;20048;-67
2023/09/12 08:33:51;;;;;;;3.10;1.30;;;;;;;25.38;57.93;99442.03;5073290;28;20434;-67
2023/09/12 08:36:20;;;;;;;1.88;1.15;;;;;;;25.49;57.28;99439.56;5072449;28;20109;-67
2023/09/12 08:38:49;;;;;;;1.10;1.00;;;;;;;25.73;57.69;99437.94;5072056;28;20064;-67
2023/09/12 08:41:19;;;;;;;1.50;1.25;;;;;;;25.87;57.04;99437.03;5072823;28;20040;-67
2023/09/12 08:43:49;;;;;;;1.00;0.95;;;;;;;25.90;55.98;99439.44;5072974;28;20083;-67
2023/09/12 08:46:19;;;;;;;1.05;0.95;;;;;;;25.93;56.09;99434.84;5073142;28;20048;-67
2023/09/12 08:48:50;;;;;;;0.98;0.80;;;;;;;26.04;55.67;99434.09;5072272;28;20496;-67
2023/09/12 08:51:19;;;;;;;0.77;0.75;;;;;;;26.24;55.99;99425.78;5073156;28;20479;-67
2023/09/12 08:53:48;;;;;;;3.90;1.15;;;;;;;26.38;55.39;99419.56;5072814;28;20549;-67
2023/09/12 08:56:19;;;;;;;0.93;0.77;;;;;;;26.48;55.20;99421.47;5069879;28;20032;-69
2023/09/12 08:58:49;;;;;;;1.90;1.52;;;;;;;26.62;55.97;99423.09;5070066;28;20049;-69
2023/09/12 09:01:20;;;;;;;1.10;1.00;;;;;;;26.69;54.92;99413.00;5068451;28;20040;-68
2023/09/12 09:03:49;;;;;;;1.33;1.23;;;;;;;26.90;54.92;99414.16;5071954;28;20068;-67
2023/09/12 09:06:19;;;;;;;;;;;;;;;27.07;54.15;99417.22;5073100;28;20127;-67
2023/09/12 09:08:49;;;;;;;2.80;1.55;;;;;;;27.12;53.58;99417.72;5073611;28;19925;-67
2023/09/12 09:11:19;;;;;;;0.82;0.82;;;;;;;27.16;52.72;99413.13;5074728;28;20044;-68
2023/09/12 09:13:48;;;;;;;3.45;1.13;;;;;;;27.19;52.53;99415.47;5074154;28;20101;-67
2023/09/12 09:16:19;;;;;;;0.90;0.90;;;;;;;27.28;52.54;99423.50;5076407;28;20036;-67
2023/09/12 09:18:53;;;;;;;1.42;0.82;;;;;;;27.51;52.31;99418.41;5076138;28;20101;-68
2023/09/12 09:21:25;;;;;;;1.92;1.48;;;;;;;27.51;51.70;99416.63;5076622;28;20551;-68
2023/09/12 09:23:55;;;;;;;0.95;0.88;;;;;;;27.49;51.27;99423.78;5074914;28;20051;-68
2023/09/12 09:26:25;;;;;;;1.42;1.08;;;;;;;27.61;51.24;99415.00;5076279;28;20412;-68
2023/09/12 09:29:06;;;;;;;4.43;1.42;;;;;;;27.71;50.64;99410.72;5076438;28;20388;-68
2023/09/12 09:31:37;;;;;;;0.93;0.85;;;;;;;27.88;51.15;99410.25;5075842;28;20098;-68
2023/09/12 09:34:12;;;;;;;0.65;0.65;;;;;;;28.05;51.75;99409.00;5072542;28;20553;-68
2023/09/12 09:36:45;;;;;;;42.50;28.20;;;;;;;28.16;51.25;99414.28;5072603;28;20060;-68
2023/09/12 09:39:14;;;;;;;;;;;;;;;28.19;50.53;99415.84;5076137;28;20052;-68
2023/09/12 09:41:48;;;;;;;2.20;2.00;;;;;;;28.33;48.45;99407.72;5073600;28;19920;-72
2023/09/12 09:44:18;;;;;;;1.10;0.82;;;;;;;28.41;48.13;99410.59;5075665;28;20037;-68
2023/09/12 09:46:46;;;;;;;;;;;;;;;28.55;48.39;99407.72;5075816;28;20051;-68
2023/09/12 09:49:17;;;;;;;0.75;0.75;;;;;;;28.70;48.05;99400.44;5075523;28;20368;-68
2023/09/12 09:51:46;;;;;;;0.90;0.88;;;;;;;28.80;47.40;99402.19;5074382;28;20056;-68
2023/09/12 09:54:15;;;;;;;;;;;;;;;28.89;47.31;99401.47;5075840;28;20044;-67
2023/09/12 09:56:50;;;;;;;2.97;1.42;;;;;;;29.02;46.93;99402.16;5073405;28;19928;-68
2023/09/12 09:59:21;;;;;;;1.08;1.00;;;;;;;29.06;46.30;99400.94;5072757;28;20048;-68
2023/09/12 10:01:52;;;;;;;2.80;2.10;;;;;;;29.10;45.82;99393.66;5075303;28;20519;-67
2023/09/12 10:04:21;;;;;;;0.93;0.70;;;;;;;29.07;46.09;99397.38;5075256;28;20058;-69
2023/09/12 10:06:51;;;;;;;2.60;1.55;;;;;;;29.03;46.20;99400.38;5075029;28;20052;-67
2023/09/12 10:09:27;;;;;;;1.17;0.98;;;;;;;29.13;46.63;99399.47;5073486;28;20552;-69
2023/09/12 10:11:59;;;;;;;1.58;1.10;;;;;;;29.12;46.24;99391.72;5074460;28;20400;-67
2023/09/12 10:14:31;;;;;;;6.32;2.40;;;;;;;29.11;46.89;99390.88;5075377;28;20507;-68
2023/09/12 10:17:03;;;;;;;6.15;0.50;;;;;;;29.16;46.14;99383.47;5074045;28;20048;-70
2023/09/12 10:19:43;;;;;;;1.10;0.90;;;;;;;29.33;45.69;99383.91;5074368;28;20048;-67
2023/09/12 10:22:17;;;;;;;4.35;1.42;;;;;;;29.38;44.99;99382.56;5075163;28;20040;-67
2023/09/12 10:24:47;;;;;;;0.60;0.60;;;;;;;29.45;44.76;99383.72;5072676;28;20071;-67
2023/09/12 10:27:20;;;;;;;1.42;1.20;;;;;;;29.55;44.84;99378.53;5074885;28;20063;-66
2023/09/12 10:29:52;;;;;;;2.40;1.23;;;;;;;29.74;44.60;99376.03;5074915;28;20460;-67
2023/09/12 10:32:23;;;;;;;1.52;0.70;;;;;;;29.83;44.67;99372.63;5074694;28;20045;-67
2023/09/12 10:34:53;;;;;;;3.42;2.03;;;;;;;29.93;44.53;99368.25;5073158;28;20067;-67
2023/09/12 10:37:26;;;;;;;8.27;2.15;;;;;;;29.97;44.36;99359.13;5074796;28;20049;-68
2023/09/12 10:39:56;;;;;;;1.92;1.17;;;;;;;30.00;44.09;99364.16;5074434;28;20044;-67
2023/09/12 10:42:29;;;;;;;0.82;0.77;;;;;;;30.06;42.44;99363.63;5074737;28;20053;-66
2023/09/12 10:45:03;;;;;;;1.02;0.70;;;;;;;30.13;41.79;99358.66;5073952;28;20040;-67
2023/09/12 10:47:35;;;;;;;0.85;0.85;;;;;;;30.18;41.04;99356.47;5073540;28;20476;-68
2023/09/12 10:50:04;;;;;;;1.65;1.05;;;;;;;30.30;40.63;99361.50;5074589;28;20040;-67
2023/09/12 10:52:35;;;;;;;;;;;;;;;30.36;40.94;99355.72;5074595;28;20044;-67
2023/09/12 10:55:07;;;;;;;0.73;0.70;;;;;;;30.40;41.00;99351.84;5072269;28;19920;-68
2023/09/12 10:58:04;;;;;;;1.98;1.00;;;;;;;30.59;39.08;99353.72;5074016;28;20107;-67
2023/09/12 11:00:34;;;;;;;1.10;1.00;;;;;;;30.70;38.44;99353.59;5074392;28;20076;-68
2023/09/12 11:03:38;;;;;;;0.88;0.77;;;;;;;30.78;37.99;99356.41;5074874;28;20048;-68
2023/09/12 11:06:23;;;;;;;0.60;0.60;;;;;;;30.82;38.09;99349.88;5072757;28;20124;-69
2023/09/12 11:09:20;;;;;;;1.20;1.10;;;;;;;30.71;38.89;99343.91;5073026;28;20400;-70
2023/09/12 11:11:55;;;;;;;1.00;0.90;;;;;;;30.60;38.11;99346.63;5072295;28;20033;-67
2023/09/12 11:14:26;;;;;;;0.63;0.63;;;;;;;30.57;37.48;99346.91;5074120;28;20048;-67
2023/09/12 11:17:16;;;;;;;1.90;0.90;;;;;;;30.58;38.14;99345.94;5073199;28;20488;-67
2023/09/12 11:19:49;;;;;;;0.82;0.73;;;;;;;30.65;38.81;99349.69;5072551;28;20076;-67
2023/09/12 11:22:26;;;;;;;1.15;1.00;;;;;;;30.77;38.49;99343.31;5074178;28;20136;-67
2023/09/12 11:24:57;;;;;;;1.42;0.88;;;;;;;30.91;38.07;99342.94;5071688;28;20086;-68
2023/09/12 11:27:33;;;;;;;1.50;0.98;;;;;;;31.06;38.58;99338.94;5072415;28;20087;-66
2023/09/12 11:30:08;;;;;;;6.20;2.05;;;;;;;31.23;37.57;99334.78;5068575;28;20048;-68
2023/09/12 11:32:38;;;;;;;0.85;0.77;;;;;;;31.28;37.81;99338.66;5072747;28;20080;-66
2023/09/12 11:35:08;;;;;;;4.90;1.52;;;;;;;31.19;37.30;99334.25;5072638;28;20548;-67
2023/09/12 11:37:37;;;;;;;1.80;1.45;;;;;;;31.20;38.11;99329.78;5073616;28;20044;-68
2023/09/12 11:40:24;;;;;;;0.60;0.60;;;;;;;31.18;37.86;99322.00;5071534;28;20082;-68
2023/09/12 11:42:54;;;;;;;1.27;1.13;;;;;;;31.27;38.29;99325.59;5073041;28;20049;-68
2023/09/12 11:45:24;;;;;;;1.10;0.88;;;;;;;31.35;37.73;99321.28;5073433;28;20123;-68
2023/09/12 11:47:53;;;;;;;1.00;0.90;;;;;;;31.38;36.94;99318.38;5073516;28;20504;-69
2023/09/12 11:50:30;;;;;;;1.05;0.95;;;;;;;31.53;36.99;99326.72;5073639;28;20037;-68
2023/09/12 11:53:03;;;;;;;0.85;0.77;;;;;;;31.47;36.52;99320.19;5072253;28;20496;-66